sensor_id;sensor_type;location;lat;lon;timestamp;P1;durP1;ratioP1;P2;durP2;ratioP2
76262;SDS011;65080;50.908;6.916;2023-05-10T00:00:04;12.53;;;9.73;;
76262;SDS011;65080;50.908;6.916;2023-05-10T00:02:34;16.80;;;10.10;;
76262;SDS011;65080;50.908;6.916;2023-05-10T00:05:04;12.37;;;9.00;;
76262;SDS011;65080;50.908;6.916;2023-05-10T00:07:33;15.43;;;10.03;;
76262;SDS011;65080;50.908;6.916;2023-05-10T00:10:01;25.83;;;11.60;;
76262;SDS011;65080;50.908;6.916;2023-05-10T00:12:29;16.97;;;10.40;;
76262;SDS011;65080;50.908;6.916;2023-05-10T00:14:58;16.77;;;11.80;;
76262;SDS011;65080;50.908;6.916;2023-05-10T00:17:26;15.50;;;10.80;;
76262;SDS011;65080;50.908;6.916;2023-05-10T00:19:54;16.30;;;10.03;;
76262;SDS011;65080;50.908;6.916;2023-05-10T00:22:25;20.03;;;10.47;;
76262;SDS011;65080;50.908;6.916;2023-05-10T00:24:53;18.60;;;11.03;;
76262;SDS011;65080;50.908;6.916;2023-05-10T00:27:21;15.07;;;10.77;;
76262;SDS011;65080;50.908;6.916;2023-05-10T00:29:50;15.80;;;10.93;;
76262;SDS011;65080;50.908;6.916;2023-05-10T00:32:18;19.70;;;11.10;;
76262;SDS011;65080;50.908;6.916;2023-05-10T00:34:47;18.17;;;11.50;;
76262;SDS011;65080;50.908;6.916;2023-05-10T00:37:15;17.17;;;10.60;;
76262;SDS011;65080;50.908;6.916;2023-05-10T00:39:45;18.13;;;11.97;;
76262;SDS011;65080;50.908;6.916;2023-05-10T00:42:13;17.50;;;11.93;;
76262;SDS011;65080;50.908;6.916;2023-05-10T00:44:42;18.40;;;12.13;;
76262;SDS011;65080;50.908;6.916;2023-05-10T00:47:10;19.37;;;11.77;;
76262;SDS011;65080;50.908;6.916;2023-05-10T00:49:39;21.53;;;11.77;;
76262;SDS011;65080;50.908;6.916;2023-05-10T00:52:08;19.60;;;12.90;;
76262;SDS011;65080;50.908;6.916;2023-05-10T00:54:37;16.40;;;11.37;;
76262;SDS011;65080;50.908;6.916;2023-05-10T00:57:07;15.63;;;11.37;;
76262;SDS011;65080;50.908;6.916;2023-05-10T00:59:35;17.30;;;12.40;;
76262;SDS011;65080;50.908;6.916;2023-05-10T01:02:04;18.20;;;12.67;;
76262;SDS011;65080;50.908;6.916;2023-05-10T01:04:34;20.10;;;13.30;;
76262;SDS011;65080;50.908;6.916;2023-05-10T01:07:03;16.00;;;11.33;;
76262;SDS011;65080;50.908;6.916;2023-05-10T01:09:32;17.40;;;12.20;;
76262;SDS011;65080;50.908;6.916;2023-05-10T01:12:01;19.17;;;12.87;;
76262;SDS011;65080;50.908;6.916;2023-05-10T01:14:31;17.97;;;12.27;;
76262;SDS011;65080;50.908;6.916;2023-05-10T01:17:00;21.90;;;12.80;;
76262;SDS011;65080;50.908;6.916;2023-05-10T01:19:29;18.10;;;12.10;;
76262;SDS011;65080;50.908;6.916;2023-05-10T01:22:02;24.07;;;15.17;;
76262;SDS011;65080;50.908;6.916;2023-05-10T01:24:41;19.60;;;14.07;;
76262;SDS011;65080;50.908;6.916;2023-05-10T01:30:42;22.43;;;13.80;;
76262;SDS011;65080;50.908;6.916;2023-05-10T01:33:34;20.70;;;12.80;;
76262;SDS011;65080;50.908;6.916;2023-05-10T01:36:08;18.53;;;12.80;;
76262;SDS011;65080;50.908;6.916;2023-05-10T01:38:46;15.90;;;11.30;;
76262;SDS011;65080;50.908;6.916;2023-05-10T01:41:18;16.07;;;11.80;;
76262;SDS011;65080;50.908;6.916;2023-05-10T01:43:55;20.20;;;11.60;;
76262;SDS011;65080;50.908;6.916;2023-05-10T01:46:28;18.03;;;11.70;;
76262;SDS011;65080;50.908;6.916;2023-05-10T01:49:06;18.27;;;11.20;;
76262;SDS011;65080;50.908;6.916;2023-05-10T01:51:39;17.30;;;11.37;;
76262;SDS011;65080;50.908;6.916;2023-05-10T01:54:13;16.63;;;11.40;;
76262;SDS011;65080;50.908;6.916;2023-05-10T01:56:44;16.77;;;10.77;;
76262;SDS011;65080;50.908;6.916;2023-05-10T01:59:16;19.10;;;11.40;;
76262;SDS011;65080;50.908;6.916;2023-05-10T02:01:46;18.37;;;11.47;;
76262;SDS011;65080;50.908;6.916;2023-05-10T02:04:17;18.20;;;9.90;;
76262;SDS011;65080;50.908;6.916;2023-05-10T02:06:49;15.40;;;10.67;;
76262;SDS011;65080;50.908;6.916;2023-05-10T02:09:20;16.80;;;10.40;;
76262;SDS011;65080;50.908;6.916;2023-05-10T02:11:51;16.80;;;9.87;;
76262;SDS011;65080;50.908;6.916;2023-05-10T02:14:20;17.40;;;10.87;;
76262;SDS011;65080;50.908;6.916;2023-05-10T02:16:50;15.37;;;10.60;;
76262;SDS011;65080;50.908;6.916;2023-05-10T02:19:23;17.30;;;11.60;;
76262;SDS011;65080;50.908;6.916;2023-05-10T02:21:52;20.60;;;11.30;;
76262;SDS011;65080;50.908;6.916;2023-05-10T02:24:22;14.67;;;10.20;;
76262;SDS011;65080;50.908;6.916;2023-05-10T02:26:53;13.67;;;9.60;;
76262;SDS011;65080;50.908;6.916;2023-05-10T02:29:23;16.13;;;11.57;;
76262;SDS011;65080;50.908;6.916;2023-05-10T02:31:54;14.07;;;10.70;;
76262;SDS011;65080;50.908;6.916;2023-05-10T02:34:26;15.77;;;10.87;;
76262;SDS011;65080;50.908;6.916;2023-05-10T02:36:55;15.30;;;10.47;;
76262;SDS011;65080;50.908;6.916;2023-05-10T02:39:25;14.23;;;10.73;;
76262;SDS011;65080;50.908;6.916;2023-05-10T02:41:56;17.40;;;10.90;;
76262;SDS011;65080;50.908;6.916;2023-05-10T02:44:26;14.47;;;11.50;;
76262;SDS011;65080;50.908;6.916;2023-05-10T02:46:57;15.07;;;10.00;;
76262;SDS011;65080;50.908;6.916;2023-05-10T02:49:27;16.57;;;10.50;;
76262;SDS011;65080;50.908;6.916;2023-05-10T02:51:56;13.50;;;10.33;;
76262;SDS011;65080;50.908;6.916;2023-05-10T02:54:29;16.57;;;10.67;;
76262;SDS011;65080;50.908;6.916;2023-05-10T02:57:00;14.10;;;9.50;;
76262;SDS011;65080;50.908;6.916;2023-05-10T02:59:32;13.53;;;9.53;;
76262;SDS011;65080;50.908;6.916;2023-05-10T03:02:01;12.30;;;8.80;;
76262;SDS011;65080;50.908;6.916;2023-05-10T03:04:32;13.03;;;8.73;;
76262;SDS011;65080;50.908;6.916;2023-05-10T03:07:01;13.57;;;8.23;;
76262;SDS011;65080;50.908;6.916;2023-05-10T03:09:29;12.37;;;9.10;;
76262;SDS011;65080;50.908;6.916;2023-05-10T03:12:00;12.27;;;9.07;;
76262;SDS011;65080;50.908;6.916;2023-05-10T03:14:34;12.10;;;8.63;;
76262;SDS011;65080;50.908;6.916;2023-05-10T03:17:15;13.07;;;8.27;;
76262;SDS011;65080;50.908;6.916;2023-05-10T03:19:53;14.60;;;9.53;;
76262;SDS011;65080;50.908;6.916;2023-05-10T03:22:24;10.70;;;8.07;;
76262;SDS011;65080;50.908;6.916;2023-05-10T03:24:56;16.00;;;9.73;;
76262;SDS011;65080;50.908;6.916;2023-05-10T03:27:26;14.00;;;9.23;;
76262;SDS011;65080;50.908;6.916;2023-05-10T03:29:55;13.60;;;10.53;;
76262;SDS011;65080;50.908;6.916;2023-05-10T03:32:25;15.37;;;8.93;;
76262;SDS011;65080;50.908;6.916;2023-05-10T03:34:56;14.37;;;9.80;;
76262;SDS011;65080;50.908;6.916;2023-05-10T03:37:24;17.77;;;11.20;;
76262;SDS011;65080;50.908;6.916;2023-05-10T03:39:52;15.50;;;9.90;;
76262;SDS011;65080;50.908;6.916;2023-05-10T03:42:20;14.13;;;9.77;;
76262;SDS011;65080;50.908;6.916;2023-05-10T03:44:49;13.90;;;10.13;;
76262;SDS011;65080;50.908;6.916;2023-05-10T03:47:17;16.17;;;9.97;;
76262;SDS011;65080;50.908;6.916;2023-05-10T03:49:46;16.43;;;9.80;;
76262;SDS011;65080;50.908;6.916;2023-05-10T03:52:16;14.70;;;8.93;;
76262;SDS011;65080;50.908;6.916;2023-05-10T03:54:44;15.40;;;10.27;;
76262;SDS011;65080;50.908;6.916;2023-05-10T03:57:13;15.63;;;10.40;;
76262;SDS011;65080;50.908;6.916;2023-05-10T03:59:41;17.77;;;10.20;;
76262;SDS011;65080;50.908;6.916;2023-05-10T04:02:09;18.03;;;9.23;;
76262;SDS011;65080;50.908;6.916;2023-05-10T04:04:37;13.23;;;9.67;;
76262;SDS011;65080;50.908;6.916;2023-05-10T04:07:06;12.63;;;9.80;;
76262;SDS011;65080;50.908;6.916;2023-05-10T04:09:35;14.73;;;10.53;;
76262;SDS011;65080;50.908;6.916;2023-05-10T04:12:04;14.90;;;9.70;;
76262;SDS011;65080;50.908;6.916;2023-05-10T04:14:36;21.57;;;11.77;;
76262;SDS011;65080;50.908;6.916;2023-05-10T04:17:04;18.77;;;11.80;;
76262;SDS011;65080;50.908;6.916;2023-05-10T04:19:33;18.33;;;11.87;;
76262;SDS011;65080;50.908;6.916;2023-05-10T04:22:02;18.67;;;12.50;;
76262;SDS011;65080;50.908;6.916;2023-05-10T04:24:30;19.57;;;12.70;;
76262;SDS011;65080;50.908;6.916;2023-05-10T04:27:00;24.63;;;11.77;;
76262;SDS011;65080;50.908;6.916;2023-05-10T04:29:29;23.70;;;14.30;;
76262;SDS011;65080;50.908;6.916;2023-05-10T04:31:57;20.97;;;13.40;;
76262;SDS011;65080;50.908;6.916;2023-05-10T04:34:25;18.03;;;13.20;;
76262;SDS011;65080;50.908;6.916;2023-05-10T04:36:53;17.60;;;10.90;;
76262;SDS011;65080;50.908;6.916;2023-05-10T04:39:22;21.27;;;13.30;;
76262;SDS011;65080;50.908;6.916;2023-05-10T04:41:50;21.90;;;12.87;;
76262;SDS011;65080;50.908;6.916;2023-05-10T04:44:21;21.97;;;13.73;;
76262;SDS011;65080;50.908;6.916;2023-05-10T04:46:49;25.23;;;13.40;;
76262;SDS011;65080;50.908;6.916;2023-05-10T04:49:18;22.93;;;14.70;;
76262;SDS011;65080;50.908;6.916;2023-05-10T04:51:46;23.27;;;12.93;;
76262;SDS011;65080;50.908;6.916;2023-05-10T04:54:15;22.50;;;13.93;;
76262;SDS011;65080;50.908;6.916;2023-05-10T04:56:46;20.80;;;14.03;;
76262;SDS011;65080;50.908;6.916;2023-05-10T04:59:14;19.47;;;13.03;;
76262;SDS011;65080;50.908;6.916;2023-05-10T05:01:45;22.33;;;13.70;;
76262;SDS011;65080;50.908;6.916;2023-05-10T05:04:14;26.27;;;16.20;;
76262;SDS011;65080;50.908;6.916;2023-05-10T05:06:42;22.20;;;14.10;;
76262;SDS011;65080;50.908;6.916;2023-05-10T05:09:11;18.37;;;13.00;;
76262;SDS011;65080;50.908;6.916;2023-05-10T05:11:40;18.60;;;13.27;;
76262;SDS011;65080;50.908;6.916;2023-05-10T05:14:12;23.90;;;13.97;;
76262;SDS011;65080;50.908;6.916;2023-05-10T05:16:40;20.20;;;12.83;;
76262;SDS011;65080;50.908;6.916;2023-05-10T05:19:09;18.83;;;13.40;;
76262;SDS011;65080;50.908;6.916;2023-05-10T05:21:38;21.07;;;13.40;;
76262;SDS011;65080;50.908;6.916;2023-05-10T05:24:06;23.07;;;13.40;;
76262;SDS011;65080;50.908;6.916;2023-05-10T05:26:34;25.33;;;12.57;;
76262;SDS011;65080;50.908;6.916;2023-05-10T05:29:03;23.57;;;14.03;;
76262;SDS011;65080;50.908;6.916;2023-05-10T05:31:31;18.50;;;12.43;;
76262;SDS011;65080;50.908;6.916;2023-05-10T05:33:59;20.67;;;13.53;;
76262;SDS011;65080;50.908;6.916;2023-05-10T05:36:29;22.03;;;14.13;;
76262;SDS011;65080;50.908;6.916;2023-05-10T05:38:57;21.10;;;13.90;;
76262;SDS011;65080;50.908;6.916;2023-05-10T05:41:26;24.60;;;14.20;;
76262;SDS011;65080;50.908;6.916;2023-05-10T05:43:54;23.50;;;13.83;;
76262;SDS011;65080;50.908;6.916;2023-05-10T05:46:22;27.50;;;15.33;;
76262;SDS011;65080;50.908;6.916;2023-05-10T05:48:50;29.03;;;15.50;;
76262;SDS011;65080;50.908;6.916;2023-05-10T05:51:18;29.23;;;15.57;;
76262;SDS011;65080;50.908;6.916;2023-05-10T05:53:48;19.50;;;13.17;;
76262;SDS011;65080;50.908;6.916;2023-05-10T05:56:16;25.40;;;14.03;;
76262;SDS011;65080;50.908;6.916;2023-05-10T05:58:50;23.53;;;13.80;;
76262;SDS011;65080;50.908;6.916;2023-05-10T06:01:18;24.00;;;14.27;;
76262;SDS011;65080;50.908;6.916;2023-05-10T06:03:47;25.60;;;14.33;;
76262;SDS011;65080;50.908;6.916;2023-05-10T06:06:18;23.27;;;13.90;;
76262;SDS011;65080;50.908;6.916;2023-05-10T06:08:47;22.73;;;13.63;;
76262;SDS011;65080;50.908;6.916;2023-05-10T06:11:16;19.90;;;13.63;;
76262;SDS011;65080;50.908;6.916;2023-05-10T06:13:44;21.57;;;14.90;;
76262;SDS011;65080;50.908;6.916;2023-05-10T06:16:13;27.83;;;14.73;;
76262;SDS011;65080;50.908;6.916;2023-05-10T06:18:41;27.47;;;15.20;;
76262;SDS011;65080;50.908;6.916;2023-05-10T06:21:09;25.37;;;14.73;;
76262;SDS011;65080;50.908;6.916;2023-05-10T06:23:38;22.73;;;13.83;;
76262;SDS011;65080;50.908;6.916;2023-05-10T06:26:07;29.03;;;13.77;;
76262;SDS011;65080;50.908;6.916;2023-05-10T06:28:36;21.10;;;13.70;;
76262;SDS011;65080;50.908;6.916;2023-05-10T06:31:05;22.07;;;12.30;;
76262;SDS011;65080;50.908;6.916;2023-05-10T06:33:34;25.93;;;14.30;;
76262;SDS011;65080;50.908;6.916;2023-05-10T06:36:02;23.73;;;12.77;;
76262;SDS011;65080;50.908;6.916;2023-05-10T06:38:30;25.33;;;14.10;;
76262;SDS011;65080;50.908;6.916;2023-05-10T06:40:59;18.90;;;13.17;;
76262;SDS011;65080;50.908;6.916;2023-05-10T06:43:29;22.50;;;13.97;;
76262;SDS011;65080;50.908;6.916;2023-05-10T06:45:57;20.63;;;13.20;;
76262;SDS011;65080;50.908;6.916;2023-05-10T06:48:26;18.83;;;12.93;;
76262;SDS011;65080;50.908;6.916;2023-05-10T06:50:54;25.93;;;15.13;;
76262;SDS011;65080;50.908;6.916;2023-05-10T06:53:22;25.17;;;14.13;;
76262;SDS011;65080;50.908;6.916;2023-05-10T06:55:50;22.37;;;13.00;;
76262;SDS011;65080;50.908;6.916;2023-05-10T06:58:19;18.93;;;12.27;;
76262;SDS011;65080;50.908;6.916;2023-05-10T07:00:48;24.90;;;14.00;;
76262;SDS011;65080;50.908;6.916;2023-05-10T07:03:17;25.43;;;13.67;;
76262;SDS011;65080;50.908;6.916;2023-05-10T07:05:45;22.80;;;13.23;;
76262;SDS011;65080;50.908;6.916;2023-05-10T07:08:13;21.43;;;13.27;;
76262;SDS011;65080;50.908;6.916;2023-05-10T07:10:42;22.80;;;14.23;;
76262;SDS011;65080;50.908;6.916;2023-05-10T07:13:10;21.67;;;14.07;;
76262;SDS011;65080;50.908;6.916;2023-05-10T07:15:38;23.90;;;13.90;;
76262;SDS011;65080;50.908;6.916;2023-05-10T07:18:08;24.57;;;14.30;;
76262;SDS011;65080;50.908;6.916;2023-05-10T07:20:36;21.83;;;13.37;;
76262;SDS011;65080;50.908;6.916;2023-05-10T07:23:04;18.90;;;12.50;;
76262;SDS011;65080;50.908;6.916;2023-05-10T07:25:32;22.90;;;14.07;;
76262;SDS011;65080;50.908;6.916;2023-05-10T07:28:00;24.10;;;13.33;;
76262;SDS011;65080;50.908;6.916;2023-05-10T07:30:29;24.70;;;13.87;;
76262;SDS011;65080;50.908;6.916;2023-05-10T07:32:57;21.30;;;12.90;;
76262;SDS011;65080;50.908;6.916;2023-05-10T07:35:27;19.17;;;12.47;;
76262;SDS011;65080;50.908;6.916;2023-05-10T07:37:55;26.37;;;14.10;;
76262;SDS011;65080;50.908;6.916;2023-05-10T07:40:24;23.10;;;13.63;;
76262;SDS011;65080;50.908;6.916;2023-05-10T07:42:52;20.90;;;12.23;;
76262;SDS011;65080;50.908;6.916;2023-05-10T07:45:20;22.50;;;13.43;;
76262;SDS011;65080;50.908;6.916;2023-05-10T07:47:49;20.47;;;13.53;;
76262;SDS011;65080;50.908;6.916;2023-05-10T07:50:17;19.50;;;11.77;;
76262;SDS011;65080;50.908;6.916;2023-05-10T07:52:47;20.33;;;12.33;;
76262;SDS011;65080;50.908;6.916;2023-05-10T07:55:15;17.60;;;10.00;;
76262;SDS011;65080;50.908;6.916;2023-05-10T07:57:45;15.10;;;9.70;;
76262;SDS011;65080;50.908;6.916;2023-05-10T08:00:14;18.10;;;9.97;;
76262;SDS011;65080;50.908;6.916;2023-05-10T08:02:45;13.10;;;9.27;;
76262;SDS011;65080;50.908;6.916;2023-05-10T08:05:13;17.10;;;10.23;;
76262;SDS011;65080;50.908;6.916;2023-05-10T08:07:42;24.53;;;10.07;;
76262;SDS011;65080;50.908;6.916;2023-05-10T08:10:12;14.80;;;9.10;;
76262;SDS011;65080;50.908;6.916;2023-05-10T08:12:40;12.30;;;7.50;;
76262;SDS011;65080;50.908;6.916;2023-05-10T08:15:09;14.10;;;7.93;;
76262;SDS011;65080;50.908;6.916;2023-05-10T08:17:37;13.70;;;8.57;;
76262;SDS011;65080;50.908;6.916;2023-05-10T08:20:06;11.00;;;7.37;;
76262;SDS011;65080;50.908;6.916;2023-05-10T08:22:35;14.17;;;7.60;;
76262;SDS011;65080;50.908;6.916;2023-05-10T08:25:04;10.50;;;6.97;;
76262;SDS011;65080;50.908;6.916;2023-05-10T08:27:34;13.73;;;8.30;;
76262;SDS011;65080;50.908;6.916;2023-05-10T08:30:02;8.90;;;6.47;;
76262;SDS011;65080;50.908;6.916;2023-05-10T08:32:31;5.43;;;4.53;;
76262;SDS011;65080;50.908;6.916;2023-05-10T08:34:59;4.47;;;3.80;;
76262;SDS011;65080;50.908;6.916;2023-05-10T08:37:29;5.20;;;3.77;;
76262;SDS011;65080;50.908;6.916;2023-05-10T08:39:58;4.20;;;3.60;;
76262;SDS011;65080;50.908;6.916;2023-05-10T08:42:28;6.30;;;4.00;;
76262;SDS011;65080;50.908;6.916;2023-05-10T08:44:59;6.70;;;5.00;;
76262;SDS011;65080;50.908;6.916;2023-05-10T08:47:28;7.00;;;5.20;;
76262;SDS011;65080;50.908;6.916;2023-05-10T08:49:57;8.13;;;5.67;;
76262;SDS011;65080;50.908;6.916;2023-05-10T08:52:27;9.93;;;6.30;;
76262;SDS011;65080;50.908;6.916;2023-05-10T08:54:57;10.70;;;7.10;;
76262;SDS011;65080;50.908;6.916;2023-05-10T08:57:26;11.73;;;7.40;;
76262;SDS011;65080;50.908;6.916;2023-05-10T08:59:54;9.50;;;6.77;;
76262;SDS011;65080;50.908;6.916;2023-05-10T09:02:24;9.27;;;7.10;;
76262;SDS011;65080;50.908;6.916;2023-05-10T09:04:53;8.43;;;6.07;;
76262;SDS011;65080;50.908;6.916;2023-05-10T09:07:21;8.37;;;6.50;;
76262;SDS011;65080;50.908;6.916;2023-05-10T09:09:49;10.17;;;7.50;;
76262;SDS011;65080;50.908;6.916;2023-05-10T09:12:19;9.47;;;6.60;;
76262;SDS011;65080;50.908;6.916;2023-05-10T09:14:47;18.80;;;6.90;;
76262;SDS011;65080;50.908;6.916;2023-05-10T09:17:17;18.93;;;6.53;;
76262;SDS011;65080;50.908;6.916;2023-05-10T09:19:46;6.80;;;5.40;;
76262;SDS011;65080;50.908;6.916;2023-05-10T09:22:14;8.00;;;5.53;;
76262;SDS011;65080;50.908;6.916;2023-05-10T09:24:43;6.27;;;4.60;;
76262;SDS011;65080;50.908;6.916;2023-05-10T09:27:12;7.03;;;4.37;;
76262;SDS011;65080;50.908;6.916;2023-05-10T09:29:41;4.90;;;4.03;;
76262;SDS011;65080;50.908;6.916;2023-05-10T09:32:10;5.60;;;4.17;;
76262;SDS011;65080;50.908;6.916;2023-05-10T09:34:39;6.37;;;4.77;;
76262;SDS011;65080;50.908;6.916;2023-05-10T09:37:10;3.80;;;3.17;;
76262;SDS011;65080;50.908;6.916;2023-05-10T09:39:38;6.97;;;3.70;;
76262;SDS011;65080;50.908;6.916;2023-05-10T09:42:08;8.17;;;4.80;;
76262;SDS011;65080;50.908;6.916;2023-05-10T09:44:37;6.33;;;4.67;;
76262;SDS011;65080;50.908;6.916;2023-05-10T09:47:07;10.93;;;7.10;;
76262;SDS011;65080;50.908;6.916;2023-05-10T09:49:35;10.60;;;7.10;;
76262;SDS011;65080;50.908;6.916;2023-05-10T09:52:04;15.73;;;9.50;;
76262;SDS011;65080;50.908;6.916;2023-05-10T09:54:35;12.03;;;8.23;;
76262;SDS011;65080;50.908;6.916;2023-05-10T09:57:03;17.90;;;10.93;;
76262;SDS011;65080;50.908;6.916;2023-05-10T09:59:32;17.73;;;10.13;;
76262;SDS011;65080;50.908;6.916;2023-05-10T10:02:02;15.90;;;9.37;;
76262;SDS011;65080;50.908;6.916;2023-05-10T10:04:30;16.67;;;10.23;;
76262;SDS011;65080;50.908;6.916;2023-05-10T10:06:59;13.33;;;7.60;;
76262;SDS011;65080;50.908;6.916;2023-05-10T10:09:29;12.60;;;7.07;;
76262;SDS011;65080;50.908;6.916;2023-05-10T10:11:59;11.87;;;8.13;;
76262;SDS011;65080;50.908;6.916;2023-05-10T10:14:28;10.47;;;6.60;;
76262;SDS011;65080;50.908;6.916;2023-05-10T10:16:56;15.53;;;6.60;;
76262;SDS011;65080;50.908;6.916;2023-05-10T10:19:30;9.33;;;6.80;;
76262;SDS011;65080;50.908;6.916;2023-05-10T10:22:01;8.83;;;6.37;;
76262;SDS011;65080;50.908;6.916;2023-05-10T10:24:29;9.80;;;6.00;;
76262;SDS011;65080;50.908;6.916;2023-05-10T10:27:10;9.40;;;5.40;;
76262;SDS011;65080;50.908;6.916;2023-05-10T10:29:49;8.57;;;5.70;;
76262;SDS011;65080;50.908;6.916;2023-05-10T10:32:28;7.33;;;4.87;;
76262;SDS011;65080;50.908;6.916;2023-05-10T10:35:05;9.63;;;5.10;;
76262;SDS011;65080;50.908;6.916;2023-05-10T10:37:42;8.37;;;5.33;;
76262;SDS011;65080;50.908;6.916;2023-05-10T10:40:24;11.00;;;6.80;;
76262;SDS011;65080;50.908;6.916;2023-05-10T10:42:55;9.63;;;6.90;;
76262;SDS011;65080;50.908;6.916;2023-05-10T10:45:25;7.83;;;5.77;;
76262;SDS011;65080;50.908;6.916;2023-05-10T10:50:55;11.80;;;6.53;;
76262;SDS011;65080;50.908;6.916;2023-05-10T10:53:25;7.00;;;5.20;;
76262;SDS011;65080;50.908;6.916;2023-05-10T10:56:02;8.17;;;5.30;;
76262;SDS011;65080;50.908;6.916;2023-05-10T10:58:37;10.37;;;6.10;;
76262;SDS011;65080;50.908;6.916;2023-05-10T11:01:10;6.27;;;4.83;;
76262;SDS011;65080;50.908;6.916;2023-05-10T11:03:39;11.87;;;4.90;;
76262;SDS011;65080;50.908;6.916;2023-05-10T11:06:08;5.83;;;4.83;;
76262;SDS011;65080;50.908;6.916;2023-05-10T11:08:41;6.30;;;4.93;;
76262;SDS011;65080;50.908;6.916;2023-05-10T11:11:13;9.10;;;5.67;;
76262;SDS011;65080;50.908;6.916;2023-05-10T11:13:44;12.70;;;7.93;;
76262;SDS011;65080;50.908;6.916;2023-05-10T11:16:17;4.60;;;3.60;;
76262;SDS011;65080;50.908;6.916;2023-05-10T11:21:44;4.53;;;2.90;;
76262;SDS011;65080;50.908;6.916;2023-05-10T11:24:13;5.00;;;2.70;;
76262;SDS011;65080;50.908;6.916;2023-05-10T11:26:42;4.30;;;2.03;;
76262;SDS011;65080;50.908;6.916;2023-05-10T11:29:13;4.13;;;2.73;;
76262;SDS011;65080;50.908;6.916;2023-05-10T11:31:42;6.77;;;2.87;;
76262;SDS011;65080;50.908;6.916;2023-05-10T11:34:11;4.40;;;2.80;;
76262;SDS011;65080;50.908;6.916;2023-05-10T11:36:50;3.53;;;2.20;;
76262;SDS011;65080;50.908;6.916;2023-05-10T11:39:20;3.73;;;2.43;;
76262;SDS011;65080;50.908;6.916;2023-05-10T11:41:48;2.93;;;2.57;;
76262;SDS011;65080;50.908;6.916;2023-05-10T11:44:18;7.43;;;2.70;;
76262;SDS011;65080;50.908;6.916;2023-05-10T11:46:46;4.40;;;2.23;;
76262;SDS011;65080;50.908;6.916;2023-05-10T11:49:16;3.33;;;2.10;;
76262;SDS011;65080;50.908;6.916;2023-05-10T11:51:44;4.73;;;2.40;;
76262;SDS011;65080;50.908;6.916;2023-05-10T11:54:13;3.80;;;2.10;;
76262;SDS011;65080;50.908;6.916;2023-05-10T11:56:41;1.90;;;1.67;;
76262;SDS011;65080;50.908;6.916;2023-05-10T11:59:09;1.20;;;1.10;;
76262;SDS011;65080;50.908;6.916;2023-05-10T12:01:39;1.50;;;1.40;;
76262;SDS011;65080;50.908;6.916;2023-05-10T12:04:08;1.93;;;1.20;;
76262;SDS011;65080;50.908;6.916;2023-05-10T12:06:39;4.33;;;3.80;;
76262;SDS011;65080;50.908;6.916;2023-05-10T12:09:08;1.83;;;1.60;;
76262;SDS011;65080;50.908;6.916;2023-05-10T12:11:37;1.63;;;1.23;;
76262;SDS011;65080;50.908;6.916;2023-05-10T12:14:09;1.30;;;1.20;;
76262;SDS011;65080;50.908;6.916;2023-05-10T12:16:39;2.30;;;1.37;;
76262;SDS011;65080;50.908;6.916;2023-05-10T12:19:08;1.43;;;1.30;;
76262;SDS011;65080;50.908;6.916;2023-05-10T12:21:36;1.30;;;1.20;;
76262;SDS011;65080;50.908;6.916;2023-05-10T12:24:05;2.70;;;1.30;;
76262;SDS011;65080;50.908;6.916;2023-05-10T12:26:33;1.93;;;1.73;;
76262;SDS011;65080;50.908;6.916;2023-05-10T12:29:12;3.00;;;1.63;;
76262;SDS011;65080;50.908;6.916;2023-05-10T12:31:53;5.17;;;3.70;;
76262;SDS011;65080;50.908;6.916;2023-05-10T12:34:25;2.70;;;1.77;;
76262;SDS011;65080;50.908;6.916;2023-05-10T12:36:54;3.30;;;2.40;;
76262;SDS011;65080;50.908;6.916;2023-05-10T12:39:23;1.30;;;1.20;;
76262;SDS011;65080;50.908;6.916;2023-05-10T12:41:51;1.80;;;1.23;;
76262;SDS011;65080;50.908;6.916;2023-05-10T12:44:19;1.70;;;0.80;;
76262;SDS011;65080;50.908;6.916;2023-05-10T12:46:48;4.53;;;1.53;;
76262;SDS011;65080;50.908;6.916;2023-05-10T12:49:17;1.70;;;1.50;;
76262;SDS011;65080;50.908;6.916;2023-05-10T12:51:46;2.43;;;1.50;;
76262;SDS011;65080;50.908;6.916;2023-05-10T12:54:14;2.63;;;1.70;;
76262;SDS011;65080;50.908;6.916;2023-05-10T12:56:42;3.60;;;1.17;;
76262;SDS011;65080;50.908;6.916;2023-05-10T12:59:10;1.60;;;1.40;;
76262;SDS011;65080;50.908;6.916;2023-05-10T13:01:39;4.20;;;1.33;;
76262;SDS011;65080;50.908;6.916;2023-05-10T13:04:07;1.93;;;1.40;;
76262;SDS011;65080;50.908;6.916;2023-05-10T13:06:36;2.53;;;1.50;;
76262;SDS011;65080;50.908;6.916;2023-05-10T13:09:04;2.03;;;1.07;;
76262;SDS011;65080;50.908;6.916;2023-05-10T13:11:33;3.00;;;1.27;;
76262;SDS011;65080;50.908;6.916;2023-05-10T13:14:01;2.20;;;1.00;;
76262;SDS011;65080;50.908;6.916;2023-05-10T13:16:30;1.80;;;1.20;;
76262;SDS011;65080;50.908;6.916;2023-05-10T13:18:59;1.43;;;0.93;;
76262;SDS011;65080;50.908;6.916;2023-05-10T13:21:27;1.23;;;1.13;;
76262;SDS011;65080;50.908;6.916;2023-05-10T13:23:57;3.43;;;1.33;;
76262;SDS011;65080;50.908;6.916;2023-05-10T13:26:26;3.53;;;1.20;;
76262;SDS011;65080;50.908;6.916;2023-05-10T13:28:54;1.83;;;1.13;;
76262;SDS011;65080;50.908;6.916;2023-05-10T13:31:23;1.63;;;1.07;;
76262;SDS011;65080;50.908;6.916;2023-05-10T13:33:51;2.30;;;0.90;;
76262;SDS011;65080;50.908;6.916;2023-05-10T13:36:19;2.07;;;1.20;;
76262;SDS011;65080;50.908;6.916;2023-05-10T13:38:47;3.53;;;0.83;;
76262;SDS011;65080;50.908;6.916;2023-05-10T13:41:17;2.00;;;0.97;;
76262;SDS011;65080;50.908;6.916;2023-05-10T13:43:45;1.97;;;0.50;;
76262;SDS011;65080;50.908;6.916;2023-05-10T13:46:15;2.80;;;0.83;;
76262;SDS011;65080;50.908;6.916;2023-05-10T13:48:43;1.20;;;0.70;;
76262;SDS011;65080;50.908;6.916;2023-05-10T13:51:11;1.10;;;0.90;;
76262;SDS011;65080;50.908;6.916;2023-05-10T13:53:39;2.40;;;0.93;;
76262;SDS011;65080;50.908;6.916;2023-05-10T13:56:07;1.13;;;0.70;;
76262;SDS011;65080;50.908;6.916;2023-05-10T13:58:37;2.23;;;0.70;;
76262;SDS011;65080;50.908;6.916;2023-05-10T14:01:05;2.30;;;0.60;;
76262;SDS011;65080;50.908;6.916;2023-05-10T14:03:34;1.50;;;0.70;;
76262;SDS011;65080;50.908;6.916;2023-05-10T14:06:02;2.20;;;0.97;;
76262;SDS011;65080;50.908;6.916;2023-05-10T14:08:30;2.30;;;1.13;;
76262;SDS011;65080;50.908;6.916;2023-05-10T14:10:59;1.50;;;0.77;;
76262;SDS011;65080;50.908;6.916;2023-05-10T14:13:27;1.50;;;0.80;;
76262;SDS011;65080;50.908;6.916;2023-05-10T14:15:56;1.60;;;0.97;;
76262;SDS011;65080;50.908;6.916;2023-05-10T14:18:27;2.50;;;0.60;;
76262;SDS011;65080;50.908;6.916;2023-05-10T14:20:55;1.37;;;1.00;;
76262;SDS011;65080;50.908;6.916;2023-05-10T14:23:23;1.53;;;0.67;;
76262;SDS011;65080;50.908;6.916;2023-05-10T14:25:52;2.13;;;0.53;;
76262;SDS011;65080;50.908;6.916;2023-05-10T14:28:20;1.07;;;0.80;;
76262;SDS011;65080;50.908;6.916;2023-05-10T14:30:50;2.17;;;0.70;;
76262;SDS011;65080;50.908;6.916;2023-05-10T14:33:19;1.70;;;0.83;;
76262;SDS011;65080;50.908;6.916;2023-05-10T14:35:48;1.10;;;0.90;;
76262;SDS011;65080;50.908;6.916;2023-05-10T14:38:16;3.87;;;0.80;;
76262;SDS011;65080;50.908;6.916;2023-05-10T14:40:44;3.20;;;0.90;;
76262;SDS011;65080;50.908;6.916;2023-05-10T14:43:13;1.20;;;0.87;;
76262;SDS011;65080;50.908;6.916;2023-05-10T14:45:41;3.07;;;1.30;;
76262;SDS011;65080;50.908;6.916;2023-05-10T14:48:09;4.90;;;0.90;;
76262;SDS011;65080;50.908;6.916;2023-05-10T14:50:43;1.43;;;0.77;;
76262;SDS011;65080;50.908;6.916;2023-05-10T14:53:11;1.40;;;0.70;;
76262;SDS011;65080;50.908;6.916;2023-05-10T14:55:39;2.40;;;0.97;;